Time;durP1;ratioP1;P1;durP2;ratioP2;P2;SDS_P1;SDS_P2;PMS_P1;PMS_P2;Temp;Humidity;BMP_temperature;BMP_pressure;BME280_temperature;BME280_humidity;BME280_pressure;Samples;Min_cycle;Max_cycle;Signal;HPM_P1;HPM_P2
2023/01/11 00:08:29;;;;;;;5.40;4.32;;;9.80;79.10;;;;;;21002486;28;20455;-62
2023/01/11 00:18:31;;;;;;;8.63;4.93;;;9.90;79.20;;;;;;21000686;28;20055;-62
2023/01/11 00:28:34;;;;;;;7.55;5.82;;;9.90;79.20;;;;;;21001049;28;20531;-62
2023/01/11 00:38:52;;;;;;;7.60;5.97;;;9.80;79.20;;;;;;21000056;28;20101;-62
2023/01/11 00:48:54;;;;;;;7.95;5.63;;;9.70;79.30;;;;;;20999041;28;20048;-62
2023/01/11 00:58:56;;;;;;;5.97;5.18;;;9.70;79.60;;;;;;20998448;28;20045;-62
2023/01/11 01:08:58;;;;;;;7.25;5.60;;;9.70;79.50;;;;;;20998055;28;20412;-64
2023/01/11 01:19:00;;;;;;;9.05;6.32;;;9.70;79.40;;;;;;20996763;28;20053;-64
2023/01/11 01:29:01;;;;;;;9.75;6.38;;;9.50;79.90;;;;;;20997084;28;20526;-63
2023/01/11 01:39:04;;;;;;;6.20;4.70;;;9.30;80.90;;;;;;20996080;28;20556;-63
2023/01/11 01:49:11;;;;;;;9.60;4.80;;;9.40;80.50;;;;;;20995812;28;20052;-62
2023/01/11 01:59:16;;;;;;;7.90;5.07;;;9.40;80.50;;;;;;20995137;28;20408;-63
2023/01/11 02:09:28;;;;;;;6.73;4.40;;;9.30;80.90;;;;;;20995599;28;20056;-64
2023/01/11 02:19:51;;;;;;;6.22;4.60;;;9.30;81.20;;;;;;20994270;28;20114;-63
2023/01/11 02:30:14;;;;;;;6.13;4.32;;;9.30;81.00;;;;;;20993867;28;20052;-63
2023/01/11 02:40:32;;;;;;;6.82;4.40;;;9.30;81.00;;;;;;20995842;28;20059;-64
2023/01/11 02:51:02;;;;;;;6.10;4.53;;;9.20;81.20;;;;;;21008534;28;20127;-64
2023/01/11 03:01:06;;;;;;;5.35;4.35;;;9.20;81.50;;;;;;21008324;28;20098;-65
2023/01/11 03:22:11;;;;;;;5.75;4.47;;;9.20;81.50;;;;;;21005899;28;20492;-66
2023/01/11 03:32:31;;;;;;;6.60;4.00;;;9.30;81.30;;;;;;21005370;28;20122;-65
2023/01/11 03:43:09;;;;;;;4.53;3.28;;;9.30;81.40;;;;;;21004046;28;20474;-64
2023/01/11 03:53:01;;;;;;;7.63;6.87;;;9.40;81.40;;;;;;21003529;28;20451;-62
2023/01/11 04:03:04;;;;;;;4.78;3.40;;;9.40;81.30;;;;;;21003167;28;20052;-64
2023/01/11 04:13:06;;;;;;;6.35;4.00;;;9.40;81.10;;;;;;21001706;28;20049;-65
2023/01/11 04:23:11;;;;;;;8.45;4.43;;;9.40;81.00;;;;;;21000250;28;20061;-63
2023/01/11 04:33:13;;;;;;;8.60;5.70;;;9.40;81.20;;;;;;21000933;28;20053;-63
2023/01/11 04:43:16;;;;;;;6.25;5.00;;;9.40;81.20;;;;;;20999763;28;20703;-63
2023/01/11 04:53:18;;;;;;;8.70;5.65;;;9.40;81.40;;;;;;20998393;28;20049;-65
2023/01/11 05:03:20;;;;;;;10.15;6.35;;;9.30;81.60;;;;;;20997480;28;20049;-63
2023/01/11 05:13:40;;;;;;;8.15;5.18;;;9.30;82.20;;;;;;20997377;28;20051;-64
2023/01/11 05:23:43;;;;;;;6.75;4.63;;;9.20;82.50;;;;;;20996290;28;20117;-64
2023/01/11 05:34:07;;;;;;;4.60;3.20;;;9.20;82.90;;;;;;20997706;28;20487;-65
2023/01/11 05:54:32;;;;;;;5.70;3.75;;;9.30;82.00;;;;;;20995975;28;20047;-65
2023/01/11 06:04:34;;;;;;;6.55;4.07;;;9.20;82.10;;;;;;20994884;28;20136;-63
2023/01/11 06:14:36;;;;;;;4.57;2.90;;;9.30;81.90;;;;;;20995799;28;20123;-64
2023/01/11 06:24:38;;;;;;;4.65;3.05;;;9.30;81.80;;;;;;21009882;28;20056;-63
2023/01/11 06:34:42;;;;;;;4.45;3.08;;;9.20;82.10;;;;;;21010039;28;20049;-65
2023/01/11 06:44:43;;;;;;;2.70;1.90;;;9.30;82.10;;;;;;21010487;28;20455;-63
2023/01/11 06:54:45;;;;;;;3.58;2.65;;;9.20;81.70;;;;;;21011173;28;20483;-62
2023/01/11 07:04:48;;;;;;;3.90;2.90;;;9.40;81.40;;;;;;21007480;28;20087;-63
2023/01/11 07:14:50;;;;;;;5.45;3.60;;;9.30;81.60;;;;;;21006703;28;20055;-64
2023/01/11 07:24:52;;;;;;;6.20;3.75;;;9.40;81.60;;;;;;21006519;28;20056;-62
2023/01/11 07:34:54;;;;;;;7.03;4.32;;;9.30;82.10;;;;;;21005581;28;20082;-63
2023/01/11 07:44:56;;;;;;;6.60;4.65;;;9.30;82.50;;;;;;21009351;28;20136;-64
2023/01/11 07:55:01;;;;;;;9.32;6.63;;;9.30;82.80;;;;;;21003298;28;20049;-63
2023/01/11 08:05:03;;;;;;;10.80;6.07;;;9.30;83.30;;;;;;20920438;28;20076;-64
2023/01/11 08:15:05;;;;;;;8.27;5.75;;;9.30;83.40;;;;;;20918173;28;20413;-63
2023/01/11 08:25:07;;;;;;;10.82;7.03;;;9.30;83.50;;;;;;20919048;28;20401;-64
2023/01/11 08:35:09;;;;;;;11.32;7.30;;;9.40;83.40;;;;;;20917757;28;20049;-62
2023/01/11 08:45:11;;;;;;;13.05;7.03;;;9.30;83.60;;;;;;20915858;28;20485;-61
2023/01/11 08:55:13;;;;;;;12.25;8.05;;;9.40;83.70;;;;;;20916519;28;20098;-63
2023/01/11 09:05:14;;;;;;;13.27;8.23;;;9.40;83.70;;;;;;20914721;28;20049;-62
2023/01/11 09:15:16;;;;;;;20.35;14.60;;;9.40;83.60;;;;;;20913914;28;20052;-60
2023/01/11 09:25:19;;;;;;;14.00;9.00;;;9.50;83.90;;;;;;20914065;28;20057;-64
2023/01/11 09:35:21;;;;;;;15.40;9.23;;;9.50;84.10;;;;;;20914016;28;20049;-62
2023/01/11 09:45:27;;;;;;;12.95;7.95;;;9.60;84.10;;;;;;20912219;28;20053;-60
2023/01/11 09:55:41;;;;;;;11.30;6.78;;;9.80;83.80;;;;;;20910852;28;20390;-63
2023/01/11 10:05:54;;;;;;;7.03;3.70;;;;;;;;;;20912351;28;20060;-61
2023/01/11 10:16:23;;;;;;;8.75;4.68;;;11.00;79.70;;;;;;20911212;28;20057;-62
2023/01/11 10:26:27;;;;;;;7.93;5.40;;;10.40;81.50;;;;;;20910720;28;20052;-61
2023/01/11 10:46:58;;;;;;;8.38;5.18;;;11.10;80.00;;;;;;20910225;28;20056;-64
2023/01/11 10:57:22;;;;;;;9.25;5.80;;;12.60;73.50;;;;;;20910277;28;20147;-62
2023/01/11 11:07:33;;;;;;;11.13;7.20;;;12.20;74.60;;;;;;20921293;28;20071;-63
2023/01/11 11:17:38;;;;;;;10.05;6.65;;;11.30;78.10;;;;;;20922659;28;20049;-64
2023/01/11 11:27:42;;;;;;;;;;;11.00;79.60;;;;;;20923030;28;20496;-61
2023/01/11 11:37:44;;;;;;;12.40;8.75;;;12.30;75.60;;;;;;20920852;28;19927;-61
2023/01/11 11:48:00;;;;;;;16.75;8.57;;;11.40;78.60;;;;;;20919758;28;20474;-63
2023/01/11 11:58:11;;;;;;;12.95;8.40;;;11.20;79.60;;;;;;20919164;28;20044;-67
2023/01/11 12:08:15;;;;;;;13.60;9.25;;;11.30;79.00;;;;;;20918691;28;20088;-67
2023/01/11 12:18:41;;;;;;;15.25;8.70;;;11.10;80.10;;;;;;20916504;28;20049;-63
2023/01/11 12:29:13;;;;;;;14.02;9.35;;;11.30;79.50;;;;;;20917935;28;20076;-70
2023/01/11 12:39:23;;;;;;;16.77;8.90;;;11.50;79.70;;;;;;20916062;28;20049;-60
2023/01/11 12:49:45;;;;;;;11.88;8.57;;;11.70;78.90;;;;;;20917090;28;20060;-65
2023/01/11 13:00:44;;;;;;;26.33;9.38;;;12.50;75.40;;;;;;20915727;28;20756;-62
2023/01/11 13:10:50;;;;;;;11.88;8.25;;;13.70;73.40;;;;;;20579470;28;20050;-60
2023/01/11 13:20:59;;;;;;;10.93;8.02;;;12.30;75.10;;;;;;20597790;28;20058;-59
2023/01/11 13:31:05;;;;;;;9.73;8.07;;;11.90;76.40;;;;;;20740145;28;20057;-61
2023/01/11 13:41:15;;;;;;;10.82;7.25;;;11.70;77.30;;;;;;21025359;28;20048;-60
2023/01/11 13:51:37;;;;;;;11.90;8.23;;;11.60;77.60;;;;;;21078454;28;20048;-61
2023/01/11 14:01:55;;;;;;;11.48;8.18;;;11.60;77.40;;;;;;21078761;28;20475;-60
2023/01/11 14:12:36;;;;;;;11.10;8.13;;;11.60;77.10;;;;;;21078273;28;20044;-60
2023/01/11 14:23:12;;;;;;;8.98;7.25;;;11.80;76.40;;;;;;21057939;28;20051;-59
2023/01/11 14:33:45;;;;;;;11.77;9.35;;;12.20;75.20;;;;;;21076506;28;20066;-60
2023/01/11 14:43:47;;;;;;;8.68;7.40;;;12.20;75.00;;;;;;21090214;28;20054;-60
2023/01/11 14:53:53;;;;;;;9.35;6.95;;;12.20;74.50;;;;;;21092626;28;20052;-60
2023/01/11 15:03:56;;;;;;;36.22;22.02;;;12.20;74.70;;;;;;21091606;28;20353;-61
2023/01/11 15:14:20;;;;;;;34.15;23.42;;;12.20;74.30;;;;;;21091599;28;20044;-59
2023/01/11 15:24:29;;;;;;;35.60;23.47;;;12.20;74.10;;;;;;21089341;28;20131;-60
2023/01/11 15:34:31;;;;;;;35.80;23.08;;;12.20;74.20;;;;;;21089408;28;20389;-60
2023/01/11 15:45:10;;;;;;;36.75;23.15;;;12.00;74.40;;;;;;21087430;28;20135;-59
2023/01/11 15:55:25;;;;;;;43.33;29.67;;;12.10;74.10;;;;;;21087720;28;20050;-60
2023/01/11 16:05:31;;;;;;;30.70;20.27;;;12.00;74.10;;;;;;21086242;28;20086;-60
2023/01/11 16:15:41;;;;;;;27.30;20.02;;;11.90;74.40;;;;;;21084950;28;20048;-59
2023/01/11 16:25:45;;;;;;;21.17;15.15;;;11.90;74.30;;;;;;21085043;28;20449;-59
2023/01/11 16:35:47;;;;;;;14.70;10.00;;;11.80;74.10;;;;;;21083949;28;20128;-59
2023/01/11 16:45:52;;;;;;;21.27;15.10;;;12.00;74.80;;;;;;21083204;28;20044;-62
2023/01/11 16:56:20;;;;;;;22.55;14.82;;;12.30;71.80;;;;;;20998489;28;20122;-59
2023/01/11 17:06:23;;;;;;;25.55;16.15;;;11.70;73.50;;;;;;20995440;28;20044;-64
2023/01/11 17:16:30;;;;;;;23.33;16.33;;;11.30;74.50;;;;;;20995164;28;20072;-61
2023/01/11 17:26:48;;;;;;;24.25;18.17;;;11.20;75.30;;;;;;20994978;28;20378;-62
2023/01/11 17:36:50;;;;;;;24.70;17.50;;;11.10;75.60;;;;;;20993694;28;20130;-66
2023/01/11 17:46:51;;;;;;;25.95;18.23;;;10.90;76.10;;;;;;20993188;28;20132;-60
2023/01/11 17:56:58;;;;;;;23.58;19.08;;;;;;;;;;20916092;28;20126;-56
2023/01/11 18:07:19;;;;;;;29.77;18.20;;;;;;;;;;20912080;28;20057;-57
2023/01/11 18:17:38;;;;;;;22.38;16.48;;;;;;;;;;20924213;28;20056;-56
2023/01/11 18:27:45;;;;;;;24.40;17.83;;;;;;;;;;20927579;28;20088;-57
2023/01/11 18:37:47;;;;;;;19.38;14.43;;;;;;;;;;20926552;28;20056;-63
2023/01/11 18:47:49;;;;;;;19.15;14.82;;;;;;;;;;20926195;28;20131;-61
2023/01/11 18:57:51;;;;;;;20.88;15.10;;;;;;;;;;20926475;28;20056;-61
2023/01/11 19:07:54;;;;;;;20.95;14.70;;;;;;;;;;20924544;28;20471;-61
2023/01/11 19:17:56;;;;;;;23.00;17.15;;;;;;;;;;20923475;28;20049;-61
2023/01/11 19:27:59;;;;;;;21.73;14.52;;;;;;;;;;20920927;28;20130;-65
2023/01/11 19:38:01;;;;;;;25.77;16.85;;;;;;;;;;20923182;28;20080;-63
2023/01/11 19:48:04;;;;;;;24.02;16.92;;;;;;;;;;20922196;28;20102;-60
2023/01/11 19:58:07;;;;;;;22.88;16.95;;;;;;;;;;20921414;28;20496;-60
2023/01/11 20:08:09;;;;;;;23.08;16.02;;;;;;;;;;20920578;28;20460;-63
2023/01/11 20:18:11;;;;;;;18.45;13.63;;;;;;;;;;20919200;28;20056;-58
2023/01/11 20:28:13;;;;;;;22.00;14.55;;;;;;;;;;20918946;28;20060;-58
2023/01/11 20:38:15;;;;;;;17.27;13.00;;;;;;;;;;20917452;28;20044;-59
2023/01/11 20:48:16;;;;;;;19.83;14.20;;;9.30;78.10;;;;;;20916920;28;20091;-61
2023/01/11 20:58:18;;;;;;;20.08;14.43;;;9.20;78.70;;;;;;20916769;28;20041;-62
2023/01/11 21:08:20;;;;;;;21.02;15.70;;;9.00;79.20;;;;;;20913390;28;20137;-59
2023/01/11 21:18:21;;;;;;;23.00;14.27;;;8.90;79.50;;;;;;20913442;28;20517;-59
2023/01/11 21:28:23;;;;;;;21.50;15.73;;;8.80;79.90;;;;;;20913880;28;20049;-60
2023/01/11 21:38:25;;;;;;;24.00;16.00;;;8.70;79.80;;;;;;20912560;28;20048;-59
2023/01/11 21:48:27;;;;;;;22.25;14.63;;;8.60;79.80;;;;;;20910896;28;20105;-62
2023/01/11 21:58:28;;;;;;;24.75;15.50;;;8.50;79.90;;;;;;20911961;28;20114;-59
2023/01/11 22:08:34;;;;;;;27.42;16.20;;;8.40;80.00;;;;;;20911598;28;20052;-58
2023/01/11 22:18:36;;;;;;;25.38;16.55;;;8.30;80.20;;;;;;20910564;28;20136;-57
2023/01/11 22:38:58;;;;;;;24.75;14.82;;;8.10;80.20;;;;;;20911168;28;20119;-61
2023/01/11 22:49:00;;;;;;;23.13;15.13;;;8.10;80.00;;;;;;20911170;28;20051;-60
2023/01/11 22:59:02;;;;;;;23.92;15.18;;;7.90;80.00;;;;;;20914669;28;20416;-60
2023/01/11 23:09:08;;;;;;;22.75;15.10;;;7.80;79.60;;;;;;20927302;28;20135;-61
2023/01/11 23:19:11;;;;;;;25.35;15.52;;;7.60;79.70;;;;;;20926088;28;20416;-59
2023/01/11 23:29:14;;;;;;;19.83;13.65;;;7.30;79.90;;;;;;20925029;28;20064;-60
2023/01/11 23:39:19;;;;;;;26.45;16.38;;;7.30;80.30;;;;;;20924259;28;20549;-58
2023/01/11 23:49:22;;;;;;;27.60;16.20;;;;;;;;;;20925994;28;20424;-61
2023/01/11 23:59:26;;;;;;;18.88;12.60;;;;;;;;;;20925727;28;20469;-60
